Time;durP1;ratioP1;P1;durP2;ratioP2;P2;SDS_P1;SDS_P2;PMS_P1;PMS_P2;Temp;Humidity;BMP_temperature;BMP_pressure;BME280_temperature;BME280_humidity;BME280_pressure;Samples;Min_cycle;Max_cycle;Signal;HPM_P1;HPM_P2
2022/07/23 00:00:54;;;;;;;0.20;0.20;;;23.80;1.00;;;;;;5036400;28;20207;-80
2022/07/23 00:03:20;;;;;;;0.30;0.30;;;23.70;1.00;;;;;;5037161;28;20203;-77
2022/07/23 00:05:45;;;;;;;0.30;0.30;;;23.70;1.00;;;;;;5036182;28;20179;-77
2022/07/23 00:08:11;;;;;;;0.20;0.20;;;23.80;1.00;;;;;;5036237;28;20183;-78
2022/07/23 00:10:37;;;;;;;0.30;0.30;;;23.70;1.00;;;;;;5035909;28;20174;-79
2022/07/23 00:13:03;;;;;;;0.30;0.30;;;23.80;1.00;;;;;;5036486;28;20202;-78
2022/07/23 00:15:28;;;;;;;0.20;0.20;;;23.80;1.00;;;;;;5036931;28;20322;-77
2022/07/23 00:17:54;;;;;;;0.30;0.30;;;23.80;1.00;;;;;;5037108;28;20207;-80
2022/07/23 00:20:20;;;;;;;0.20;0.20;;;23.80;1.00;;;;;;5036221;28;20691;-78
2022/07/23 00:22:50;;;;;;;0.30;0.30;;;23.70;1.00;;;;;;5035780;28;20253;-77
2022/07/23 00:25:16;;;;;;;0.30;0.30;;;23.80;1.00;;;;;;5035756;28;20218;-78
2022/07/23 00:27:41;;;;;;;0.30;0.30;;;23.70;1.00;;;;;;5036155;28;20203;-78
2022/07/23 00:30:08;;;;;;;0.20;0.20;;;23.80;1.00;;;;;;5036757;28;20568;-79
2022/07/23 00:32:49;;;;;;;0.30;0.30;;;23.80;1.00;;;;;;5036197;28;20245;-79
2022/07/23 00:35:15;;;;;;;0.20;0.20;;;23.80;1.00;;;;;;5035946;28;20221;-77
2022/07/23 00:37:40;;;;;;;0.30;0.30;;;23.80;1.00;;;;;;5036290;28;20207;-77
2022/07/23 00:40:06;;;;;;;0.30;0.30;;;23.70;1.00;;;;;;5035504;28;20210;-78
2022/07/23 00:42:32;;;;;;;0.23;0.23;;;23.70;1.00;;;;;;5035247;28;20211;-79
2022/07/23 00:44:58;;;;;;;0.23;0.23;;;23.70;1.00;;;;;;5036111;28;20724;-80
2022/07/23 00:47:24;;;;;;;0.30;0.30;;;23.70;1.00;;;;;;5036779;28;20176;-78
2022/07/23 00:49:49;;;;;;;0.30;0.30;;;23.80;1.00;;;;;;5035212;28;20199;-79
2022/07/23 00:52:15;;;;;;;0.30;0.30;;;23.80;1.00;;;;;;5036750;28;20200;-80
2022/07/23 00:54:41;;;;;;;0.20;0.20;;;23.80;1.00;;;;;;5037891;28;20168;-80
2022/07/23 00:57:06;;;;;;;0.30;0.30;;;23.80;1.00;;;;;;5036803;28;20221;-78
2022/07/23 00:59:32;;;;;;;0.30;0.30;;;23.80;1.00;;;;;;5035285;28;20187;-77
2022/07/23 01:01:57;;;;;;;0.27;0.27;;;23.80;1.00;;;;;;5036091;28;20207;-81
2022/07/23 01:04:23;;;;;;;0.30;0.30;;;23.70;1.00;;;;;;5035167;28;20175;-78
2022/07/23 01:06:49;;;;;;;0.20;0.20;;;23.70;1.00;;;;;;5035722;28;20184;-80
2022/07/23 01:09:15;;;;;;;0.30;0.30;;;23.70;1.00;;;;;;5036130;28;20207;-80
2022/07/23 01:11:41;;;;;;;0.27;0.27;;;23.60;1.00;;;;;;5035254;28;20250;-80
2022/07/23 01:14:16;;;;;;;0.30;0.30;;;23.60;1.00;;;;;;5038722;28;20176;-81
2022/07/23 01:16:43;;;;;;;0.30;0.30;;;23.50;1.00;;;;;;5038148;28;20207;-80
2022/07/23 01:19:09;;;;;;;0.30;0.30;;;23.40;1.00;;;;;;5036825;28;20607;-82
2022/07/23 01:21:47;;;;;;;0.30;0.30;;;23.40;1.00;;;;;;5036885;28;20223;-80
2022/07/23 01:24:13;;;;;;;0.20;0.20;;;23.30;1.00;;;;;;5036335;28;20179;-79
2022/07/23 01:26:43;;;;;;;0.30;0.30;;;23.20;1.00;;;;;;5036515;28;20255;-78
2022/07/23 01:29:09;;;;;;;0.30;0.30;;;23.20;1.00;;;;;;5036438;28;20298;-79
2022/07/23 01:31:35;;;;;;;0.30;0.30;;;23.10;1.00;;;;;;5037131;28;20612;-79
2022/07/23 01:34:01;;;;;;;0.30;0.30;;;23.00;1.00;;;;;;5035702;28;20282;-79
2022/07/23 01:36:26;;;;;;;0.30;0.30;;;23.10;1.00;;;;;;5036098;28;20176;-81
2022/07/23 01:38:52;;;;;;;0.30;0.30;;;23.10;1.00;;;;;;5036247;28;20675;-79
2022/07/23 01:41:18;;;;;;;0.30;0.30;;;23.10;1.00;;;;;;5037195;28;20671;-78
2022/07/23 01:43:43;;;;;;;0.20;0.20;;;23.00;1.00;;;;;;5034959;28;20230;-77
2022/07/23 01:46:09;;;;;;;0.30;0.30;;;22.90;1.00;;;;;;5036025;28;20203;-78
2022/07/23 01:48:34;;;;;;;0.20;0.20;;;23.00;1.00;;;;;;5035032;28;20599;-78
2022/07/23 01:51:00;;;;;;;0.27;0.27;;;22.90;1.00;;;;;;5035191;28;20590;-80
2022/07/23 01:53:25;;;;;;;0.20;0.20;;;22.90;1.00;;;;;;5035601;28;20223;-79
2022/07/23 01:55:51;;;;;;;0.23;0.23;;;22.90;1.00;;;;;;5036784;28;20176;-80
2022/07/23 01:58:16;;;;;;;0.20;0.20;;;22.80;1.00;;;;;;5035349;28;20226;-80
2022/07/23 02:00:42;;;;;;;0.30;0.30;;;22.80;1.00;;;;;;5034069;28;20194;-79
2022/07/23 02:03:07;;;;;;;0.30;0.30;;;22.80;1.00;;;;;;5034566;28;20207;-80
2022/07/23 02:05:33;;;;;;;0.20;0.20;;;22.60;1.00;;;;;;5035828;28;20645;-81
2022/07/23 02:08:00;;;;;;;0.30;0.30;;;22.60;1.00;;;;;;5035310;28;20307;-81
2022/07/23 02:10:26;;;;;;;0.30;0.30;;;22.60;1.00;;;;;;5033982;28;20555;-80
2022/07/23 02:12:51;;;;;;;0.33;0.33;;;22.50;1.00;;;;;;5033977;28;20195;-79
2022/07/23 02:15:17;;;;;;;0.30;0.30;;;22.60;1.00;;;;;;5034131;28;20241;-79
2022/07/23 02:17:43;;;;;;;0.30;0.30;;;22.50;1.00;;;;;;5034605;28;20208;-79
2022/07/23 02:20:09;;;;;;;0.20;0.20;;;22.50;1.00;;;;;;5034448;28;20540;-81
2022/07/23 02:22:35;;;;;;;0.30;0.30;;;22.40;1.00;;;;;;5035299;28;20196;-80
2022/07/23 02:25:02;;;;;;;0.20;0.20;;;22.40;1.00;;;;;;5037170;28;20190;-77
2022/07/23 02:27:28;;;;;;;0.30;0.30;;;22.40;1.00;;;;;;5036556;28;20218;-80
2022/07/23 02:29:53;;;;;;;0.30;0.30;;;22.50;1.00;;;;;;5034884;28;20172;-79
2022/07/23 02:32:20;;;;;;;0.30;0.30;;;22.50;1.00;;;;;;5034184;28;20701;-82
2022/07/23 02:34:46;;;;;;;0.30;0.30;;;22.50;1.00;;;;;;5034496;28;20180;-79
2022/07/23 02:37:12;;;;;;;0.30;0.30;;;22.50;1.00;;;;;;5037641;28;20755;-78
2022/07/23 02:39:38;;;;;;;0.30;0.30;;;22.40;1.00;;;;;;5037642;28;20168;-80
2022/07/23 02:42:03;;;;;;;0.20;0.20;;;22.40;17.40;;;;;;5037761;28;20215;-79
2022/07/23 02:44:29;;;;;;;0.20;0.20;;;22.40;95.50;;;;;;5036497;28;20191;-80
2022/07/23 02:46:55;;;;;;;0.30;0.30;;;22.50;99.90;;;;;;5037015;28;20230;-81
2022/07/23 02:49:20;;;;;;;0.27;0.27;;;22.30;99.90;;;;;;5036130;28;20258;-83
2022/07/23 02:51:45;;;;;;;0.27;0.27;;;22.30;99.90;;;;;;5036715;28;20348;-80
2022/07/23 02:54:11;;;;;;;0.20;0.20;;;22.30;1.00;;;;;;5037342;28;20178;-80
2022/07/23 02:56:37;;;;;;;0.30;0.30;;;22.20;1.00;;;;;;5036136;28;20541;-78
2022/07/23 02:59:02;;;;;;;0.30;0.30;;;22.20;1.00;;;;;;5035688;28;20179;-78
2022/07/23 03:01:28;;;;;;;0.30;0.30;;;22.20;1.00;;;;;;5034741;28;20172;-80
2022/07/23 03:03:53;;;;;;;0.23;0.23;;;22.10;1.00;;;;;;5037884;28;20199;-77
2022/07/23 03:06:19;;;;;;;0.20;0.20;;;22.10;1.00;;;;;;5040950;28;20184;-77
2022/07/23 03:08:44;;;;;;;0.30;0.30;;;22.10;99.90;;;;;;5040964;28;20175;-78
2022/07/23 03:11:12;;;;;;;0.30;0.30;;;22.20;99.90;;;;;;5041275;28;20176;-80
2022/07/23 03:13:39;;;;;;;0.30;0.30;;;22.20;99.90;;;;;;5041395;28;20195;-81
2022/07/23 03:16:05;;;;;;;0.30;0.30;;;22.20;99.90;;;;;;5042287;28;20198;-81
2022/07/23 03:18:30;;;;;;;0.30;0.30;;;22.20;99.90;;;;;;5045722;28;20234;-82
2022/07/23 03:20:56;;;;;;;0.20;0.20;;;22.20;99.90;;;;;;5052580;28;20172;-79
2022/07/23 03:23:22;;;;;;;0.20;0.20;;;22.10;99.90;;;;;;5052799;28;20184;-83
2022/07/23 03:25:48;;;;;;;0.20;0.20;;;22.10;1.00;;;;;;5054441;28;20176;-82
2022/07/23 03:28:15;;;;;;;0.30;0.30;;;22.00;1.00;;;;;;5049035;28;20180;-81
2022/07/23 03:30:42;;;;;;;0.30;0.30;;;22.00;1.00;;;;;;5050343;28;20236;-81
2022/07/23 03:33:07;;;;;;;0.30;0.30;;;22.00;1.00;;;;;;5055569;28;20203;-86
2022/07/23 03:35:33;;;;;;;0.30;0.30;;;21.70;99.90;;;;;;5054854;28;20175;-82
2022/07/23 03:37:58;;;;;;;0.30;0.30;;;21.50;1.00;;;;;;5053051;28;20219;-82
2022/07/23 03:40:24;;;;;;;0.30;0.30;;;21.50;1.00;;;;;;5053531;28;20262;-81
2022/07/23 03:42:49;;;;;;;0.30;0.30;;;21.50;1.00;;;;;;5055891;28;20192;-84
2022/07/23 03:45:15;;;;;;;0.20;0.20;;;21.50;1.90;;;;;;5056115;28;20187;-83
2022/07/23 03:47:40;;;;;;;0.30;0.30;;;21.40;1.00;;;;;;5038245;28;20609;-80
2022/07/23 03:50:07;;;;;;;0.20;0.20;;;21.50;1.00;;;;;;5035288;28;20171;-79
2022/07/23 03:52:32;;;;;;;0.30;0.30;;;21.40;1.00;;;;;;5034788;28;20199;-80
2022/07/23 03:54:58;;;;;;;0.20;0.20;;;21.40;1.00;;;;;;5034776;28;20172;-81
2022/07/23 03:57:24;;;;;;;0.30;0.30;;;21.40;1.00;;;;;;5033115;28;20199;-81
2022/07/23 03:59:49;;;;;;;0.30;0.30;;;21.20;1.00;;;;;;5034328;28;20539;-80
2022/07/23 04:02:15;;;;;;;0.20;0.20;;;21.10;1.00;;;;;;5035193;28;20223;-81
2022/07/23 04:04:40;;;;;;;0.30;0.30;;;21.10;1.00;;;;;;5035853;28;20235;-82
2022/07/23 04:07:07;;;;;;;0.30;0.30;;;21.00;99.90;;;;;;5035263;28;20242;-80
2022/07/23 04:09:33;;;;;;;0.20;0.20;;;21.00;1.00;;;;;;5034592;28;20186;-82
2022/07/23 04:11:59;;;;;;;0.30;0.30;;;21.00;56.20;;;;;;5034606;28;20231;-81
2022/07/23 04:14:25;;;;;;;0.30;0.30;;;21.00;99.90;;;;;;5034587;28;20669;-80
2022/07/23 04:16:50;;;;;;;0.30;0.30;;;21.00;1.00;;;;;;5034816;28;20214;-80
2022/07/23 04:19:16;;;;;;;0.30;0.30;;;21.00;49.90;;;;;;5035930;28;20172;-78
2022/07/23 04:21:42;;;;;;;0.30;0.30;;;21.10;99.90;;;;;;5038193;28;20518;-79
2022/07/23 04:24:07;;;;;;;0.30;0.30;;;21.20;1.00;;;;;;5038656;28;20233;-77
2022/07/23 04:26:33;;;;;;;0.30;0.30;;;21.20;1.00;;;;;;5039026;28;20183;-78
2022/07/23 04:28:58;;;;;;;0.30;0.30;;;21.20;99.90;;;;;;5038147;28;20594;-79
2022/07/23 04:31:24;;;;;;;0.33;0.33;;;21.20;99.90;;;;;;5036325;28;20584;-80
2022/07/23 04:33:49;;;;;;;0.30;0.30;;;21.30;99.90;;;;;;5035726;28;20194;-81
2022/07/23 04:36:15;;;;;;;0.30;0.30;;;21.30;99.90;;;;;;5035358;28;20671;-81
2022/07/23 04:38:40;;;;;;;0.30;0.30;;;21.30;54.90;;;;;;5038053;28;20283;-77
2022/07/23 04:41:06;;;;;;;0.20;0.20;;;21.40;99.90;;;;;;5037349;28;20239;-78
2022/07/23 04:43:31;;;;;;;0.30;0.30;;;21.40;99.90;;;;;;5038980;28;20226;-80
2022/07/23 04:45:57;;;;;;;0.20;0.20;;;21.40;99.90;;;;;;5039610;28;20195;-77
2022/07/23 04:48:23;;;;;;;0.20;0.20;;;21.40;1.00;;;;;;5043495;28;20187;-78
2022/07/23 04:50:48;;;;;;;0.30;0.30;;;21.40;99.90;;;;;;5042742;28;20182;-79
2022/07/23 04:53:14;;;;;;;0.20;0.20;;;21.40;99.90;;;;;;5042023;28;20234;-78
2022/07/23 04:55:40;;;;;;;0.30;0.30;;;21.40;99.90;;;;;;5044089;28;20732;-78
2022/07/23 04:58:05;;;;;;;0.27;0.27;;;21.40;99.90;;;;;;5043662;28;20216;-78
2022/07/23 05:00:31;;;;;;;0.30;0.30;;;21.50;99.90;;;;;;5042659;28;20172;-79
2022/07/23 05:02:56;;;;;;;0.30;0.30;;;21.50;99.90;;;;;;5043901;28;20210;-78
2022/07/23 05:05:22;;;;;;;0.30;0.30;;;21.60;1.00;;;;;;5044649;28;20176;-78
2022/07/23 05:07:47;;;;;;;0.30;0.30;;;21.70;99.90;;;;;;5044053;28;20641;-81
2022/07/23 05:10:13;;;;;;;0.30;0.30;;;21.80;99.90;;;;;;5043153;28;20180;-77
2022/07/23 05:12:38;;;;;;;0.20;0.20;;;21.90;99.20;;;;;;5042708;28;20262;-80
2022/07/23 05:15:04;;;;;;;0.33;0.33;;;22.00;99.90;;;;;;5043457;28;20179;-81
2022/07/23 05:17:30;;;;;;;0.20;0.20;;;22.10;1.00;;;;;;5040933;28;20455;-79
2022/07/23 05:19:55;;;;;;;0.23;0.23;;;22.20;70.40;;;;;;5037854;28;20259;-81
2022/07/23 05:22:21;;;;;;;0.30;0.30;;;22.30;1.00;;;;;;5038045;28;20210;-80
2022/07/23 05:24:46;;;;;;;0.30;0.30;;;22.40;99.90;;;;;;5037149;28;20218;-76
2022/07/23 05:27:12;;;;;;;0.30;0.30;;;22.40;99.90;;;;;;5036184;28;20176;-78
2022/07/23 05:29:37;;;;;;;0.30;0.30;;;22.30;1.00;;;;;;5037025;28;20182;-80
2022/07/23 05:32:03;;;;;;;0.30;0.30;;;22.30;1.00;;;;;;5038354;28;20270;-80
2022/07/23 05:34:28;;;;;;;0.20;0.20;;;22.20;1.00;;;;;;5038223;28;20180;-79
2022/07/23 05:36:54;;;;;;;0.20;0.20;;;22.10;99.90;;;;;;5038808;28;20235;-79
2022/07/23 05:39:20;;;;;;;0.23;0.23;;;22.10;1.00;;;;;;5037370;28;20326;-79
2022/07/23 05:41:45;;;;;;;0.30;0.30;;;22.20;99.90;;;;;;5037966;28;20183;-80
2022/07/23 05:44:11;;;;;;;0.30;0.30;;;22.30;1.00;;;;;;5037661;28;20211;-80
2022/07/23 05:46:36;;;;;;;0.20;0.20;;;22.40;1.00;;;;;;5037479;28;20246;-78
2022/07/23 05:49:02;;;;;;;0.30;0.30;;;22.50;1.00;;;;;;5037214;28;20172;-79
2022/07/23 05:51:27;;;;;;;0.30;0.30;;;22.50;1.00;;;;;;5037748;28;20624;-79
2022/07/23 05:53:53;;;;;;;0.20;0.20;;;22.50;1.00;;;;;;5037703;28;20198;-78
2022/07/23 05:56:19;;;;;;;0.20;0.20;;;22.60;99.90;;;;;;5037313;28;20179;-80
2022/07/23 05:58:44;;;;;;;0.30;0.30;;;22.60;1.00;;;;;;5037585;28;20708;-80
2022/07/23 06:01:11;;;;;;;0.30;0.30;;;22.60;1.00;;;;;;5034896;28;20176;-79
2022/07/23 06:03:38;;;;;;;0.30;0.30;;;22.60;1.00;;;;;;5034457;28;20286;-79
2022/07/23 06:06:04;;;;;;;0.30;0.30;;;22.70;1.00;;;;;;5034353;28;20187;-78
2022/07/23 06:08:29;;;;;;;0.30;0.30;;;22.80;99.40;;;;;;5033575;28;20263;-79
2022/07/23 06:10:55;;;;;;;0.27;0.27;;;22.80;99.90;;;;;;5033268;28;20291;-78
2022/07/23 06:13:21;;;;;;;0.30;0.30;;;22.80;1.00;;;;;;5032333;28;20541;-79
2022/07/23 06:15:46;;;;;;;0.23;0.23;;;22.80;99.90;;;;;;5033920;28;20172;-79
2022/07/23 06:18:12;;;;;;;0.20;0.20;;;22.90;99.90;;;;;;5033809;28;20690;-79
2022/07/23 06:20:38;;;;;;;0.30;0.30;;;22.90;1.00;;;;;;5033376;28;20179;-79
2022/07/23 06:23:04;;;;;;;0.20;0.20;;;22.90;99.90;;;;;;5034300;28;20203;-79
2022/07/23 06:25:30;;;;;;;0.30;0.30;;;23.10;99.90;;;;;;5033535;28;20250;-80
2022/07/23 06:27:55;;;;;;;0.20;0.20;;;23.10;1.00;;;;;;5033322;28;20815;-77
2022/07/23 06:30:21;;;;;;;0.30;0.30;;;23.10;99.90;;;;;;5032946;28;20176;-78
2022/07/23 06:32:47;;;;;;;0.30;0.30;;;23.20;99.90;;;;;;5033219;28;20223;-80
2022/07/23 06:35:13;;;;;;;0.20;0.20;;;23.30;99.90;;;;;;5033565;28;20188;-80
2022/07/23 06:37:38;;;;;;;0.30;0.30;;;23.60;1.00;;;;;;5033535;28;20291;-78
2022/07/23 06:40:05;;;;;;;0.20;0.20;;;23.70;99.90;;;;;;5035802;28;20594;-79
2022/07/23 06:42:30;;;;;;;0.20;0.20;;;24.00;99.90;;;;;;5035473;28;20287;-81
2022/07/23 06:44:56;;;;;;;0.30;0.30;;;24.30;1.00;;;;;;5035935;28;20234;-80
2022/07/23 06:47:21;;;;;;;0.30;0.30;;;24.50;99.90;;;;;;5035908;28;20175;-81
2022/07/23 06:49:47;;;;;;;0.30;0.30;;;24.80;99.90;;;;;;5034811;28;20521;-78
2022/07/23 06:52:12;;;;;;;0.20;0.20;;;25.00;99.90;;;;;;5034894;28;20242;-80
2022/07/23 06:54:38;;;;;;;0.30;0.30;;;25.00;99.90;;;;;;5035341;28;20186;-81
2022/07/23 06:57:03;;;;;;;0.30;0.30;;;25.10;99.90;;;;;;5035345;28;20204;-80
2022/07/23 06:59:29;;;;;;;0.30;0.30;;;25.10;65.20;;;;;;5035494;28;20183;-81
2022/07/23 07:01:54;;;;;;;0.20;0.20;;;25.00;4.10;;;;;;5034344;28;20183;-80
2022/07/23 07:04:20;;;;;;;0.27;0.27;;;25.20;1.00;;;;;;5034602;28;20179;-79
2022/07/23 07:06:45;;;;;;;0.30;0.30;;;25.30;1.00;;;;;;5034855;28;20736;-80
2022/07/23 07:09:11;;;;;;;0.23;0.23;;;25.30;2.60;;;;;;5032754;28;20658;-82
2022/07/23 07:11:37;;;;;;;0.27;0.27;;;25.30;1.00;;;;;;5031702;28;20252;-79
2022/07/23 07:14:04;;;;;;;0.20;0.20;;;25.40;1.00;;;;;;5032736;28;20176;-76
2022/07/23 07:16:29;;;;;;;0.27;0.27;;;25.10;1.00;;;;;;5034479;28;20210;-77
2022/07/23 07:18:55;;;;;;;0.30;0.30;;;25.30;1.00;;;;;;5033408;28;20212;-77
2022/07/23 07:21:20;;;;;;;0.27;0.27;;;25.50;1.00;;;;;;5032691;28;20544;-77
2022/07/23 07:23:46;;;;;;;0.30;0.30;;;25.60;1.00;;;;;;5032633;28;20696;-77
2022/07/23 07:26:11;;;;;;;0.20;0.20;;;25.50;1.00;;;;;;5031759;28;20171;-78
2022/07/23 07:28:37;;;;;;;0.30;0.30;;;25.40;1.00;;;;;;5031354;28;20179;-78
2022/07/23 07:31:03;;;;;;;0.30;0.30;;;25.30;1.00;;;;;;5032138;28;20645;-77
2022/07/23 07:33:29;;;;;;;0.30;0.30;;;25.00;1.00;;;;;;5031202;28;20645;-76
2022/07/23 07:35:54;;;;;;;0.40;0.40;;;24.80;1.00;;;;;;5031595;28;20641;-77
2022/07/23 07:38:20;;;;;;;0.30;0.30;;;24.80;1.00;;;;;;5031200;28;20214;-76
2022/07/23 07:40:45;;;;;;;0.30;0.30;;;25.10;1.00;;;;;;5030388;28;20176;-76
2022/07/23 07:43:11;;;;;;;0.30;0.30;;;25.40;1.00;;;;;;5035550;28;20200;-79
2022/07/23 07:45:36;;;;;;;0.30;0.30;;;25.60;1.00;;;;;;5032699;28;20191;-77
2022/07/23 07:48:02;;;;;;;0.40;0.40;;;25.70;1.00;;;;;;5033643;28;20183;-77
2022/07/23 07:50:28;;;;;;;0.27;0.27;;;25.80;1.00;;;;;;5032334;28;20206;-77
2022/07/23 07:52:53;;;;;;;0.40;0.40;;;26.00;1.00;;;;;;5034335;28;20203;-77
2022/07/23 07:55:19;;;;;;;0.30;0.30;;;26.40;1.00;;;;;;5031906;28;20180;-77
2022/07/23 07:57:44;;;;;;;0.20;0.20;;;27.00;1.00;;;;;;5030214;28;20211;-77
2022/07/23 08:00:11;;;;;;;0.40;0.40;;;27.60;1.00;;;;;;5030113;28;20172;-77
2022/07/23 08:02:40;;;;;;;0.30;0.30;;;27.90;1.00;;;;;;5030481;28;20214;-77
2022/07/23 08:05:06;;;;;;;0.40;0.40;;;28.20;1.00;;;;;;5030800;28;20175;-77
2022/07/23 08:07:32;;;;;;;0.40;0.40;;;27.80;1.00;;;;;;5030632;28;20180;-77
2022/07/23 08:09:57;;;;;;;0.30;0.30;;;27.60;1.00;;;;;;5030753;28;20222;-77
2022/07/23 08:12:23;;;;;;;0.30;0.30;;;27.20;1.00;;;;;;5031828;28;20556;-76
2022/07/23 08:14:48;;;;;;;0.40;0.40;;;27.00;1.00;;;;;;5031176;28;20176;-78
2022/07/23 08:17:14;;;;;;;0.43;0.43;;;27.10;1.00;;;;;;5045401;28;20618;-77
2022/07/23 08:19:39;;;;;;;0.20;0.20;;;27.10;1.00;;;;;;5051797;28;20164;-77
2022/07/23 08:22:05;;;;;;;0.37;0.37;;;27.30;1.00;;;;;;5055410;28;20597;-78
2022/07/23 08:24:30;;;;;;;0.30;0.30;;;27.20;1.00;;;;;;5045859;28;20172;-78
2022/07/23 08:26:56;;;;;;;0.30;0.30;;;27.50;1.00;;;;;;5051518;28;20650;-78
2022/07/23 08:29:21;;;;;;;0.40;0.40;;;27.80;1.00;;;;;;5049933;28;20168;-79
2022/07/23 08:31:47;;;;;;;0.40;0.40;;;28.20;1.00;;;;;;5049477;28;20186;-77
2022/07/23 08:34:12;;;;;;;0.50;0.50;;;28.90;1.00;;;;;;5047930;28;20195;-78
2022/07/23 08:36:38;;;;;;;0.30;0.30;;;29.30;1.00;;;;;;5050960;28;20203;-79
2022/07/23 08:39:04;;;;;;;0.50;0.50;;;29.60;1.00;;;;;;5050099;28;20239;-78
2022/07/23 08:41:29;;;;;;;0.40;0.40;;;30.10;1.00;;;;;;5045604;28;20175;-78
2022/07/23 08:43:55;;;;;;;0.50;0.50;;;30.00;1.00;;;;;;5044585;28;20215;-79
2022/07/23 08:46:22;;;;;;;0.40;0.40;;;30.10;1.00;;;;;;5046882;28;20172;-79
2022/07/23 08:48:49;;;;;;;0.60;0.60;;;30.20;1.00;;;;;;5051221;28;20183;-78
2022/07/23 08:51:16;;;;;;;0.40;0.40;;;29.90;1.00;;;;;;5051009;28;20200;-79
2022/07/23 08:53:44;;;;;;;0.40;0.40;;;29.50;1.00;;;;;;5052567;28;20183;-78
2022/07/23 08:56:09;;;;;;;0.30;0.30;;;29.20;1.00;;;;;;5052530;28;20190;-79
2022/07/23 08:58:35;;;;;;;0.50;0.50;;;29.10;1.00;;;;;;5050718;28;20219;-78
2022/07/23 09:01:01;;;;;;;0.43;0.43;;;29.20;1.00;;;;;;5044029;28;20551;-78
2022/07/23 09:03:29;;;;;;;0.40;0.40;;;29.30;1.00;;;;;;5046047;28;20259;-77
2022/07/23 09:05:56;;;;;;;0.40;0.40;;;29.30;1.00;;;;;;5047128;28;20172;-78
2022/07/23 09:08:24;;;;;;;0.40;0.40;;;29.10;1.00;;;;;;5045741;28;20243;-77
2022/07/23 09:10:54;;;;;;;0.33;0.33;;;29.10;1.00;;;;;;5046943;28;20176;-77
2022/07/23 09:13:42;;;;;;;0.60;0.60;;;29.20;1.00;;;;;;5047795;28;20203;-78
2022/07/23 09:16:12;;;;;;;0.47;0.47;;;29.40;1.00;;;;;;5050031;28;20239;-79
2022/07/23 09:18:43;;;;;;;0.53;0.53;;;29.90;1.00;;;;;;5037883;28;20215;-78
2022/07/23 09:21:28;;;;;;;0.40;0.40;;;30.30;1.00;;;;;;5050034;28;20706;-78
2022/07/23 09:24:01;;;;;;;0.57;0.57;;;30.40;1.00;;;;;;5043719;28;20196;-77
2022/07/23 09:26:30;;;;;;;0.53;0.53;;;30.60;1.00;;;;;;5039402;28;20188;-78
2022/07/23 09:28:59;;;;;;;0.50;0.50;;;30.60;1.00;;;;;;5036313;28;20645;-76
2022/07/23 09:31:25;;;;;;;0.40;0.40;;;30.60;1.00;;;;;;5035744;28;20542;-77
2022/07/23 09:34:05;;;;;;;0.60;0.60;;;30.80;1.00;;;;;;5037642;28;20200;-76
2022/07/23 09:36:31;;;;;;;0.40;0.40;;;30.80;1.00;;;;;;5037647;28;20186;-78
2022/07/23 09:38:56;;;;;;;0.50;0.50;;;30.80;1.00;;;;;;5038391;28;20220;-77
2022/07/23 09:41:23;;;;;;;0.53;0.53;;;31.00;1.00;;;;;;5039895;28;20171;-78
2022/07/23 09:43:55;;;;;;;0.57;0.57;;;31.10;1.00;;;;;;5040311;28;20215;-77
2022/07/23 09:46:27;;;;;;;0.60;0.60;;;31.40;1.00;;;;;;5041937;28;20176;-77
2022/07/23 09:48:58;;;;;;;0.60;0.60;;;31.60;1.00;;;;;;5039312;28;20187;-77
2022/07/23 09:51:36;;;;;;;0.57;0.57;;;31.90;1.00;;;;;;5039634;28;20180;-77
2022/07/23 09:54:02;;;;;;;0.50;0.50;;;32.10;1.00;;;;;;5045488;28;20195;-80
2022/07/23 09:56:28;;;;;;;0.50;0.50;;;32.30;1.00;;;;;;5050596;28;20202;-78
2022/07/23 09:59:11;;;;;;;0.60;0.60;;;32.50;1.00;;;;;;5043706;28;20211;-79
2022/07/23 10:02:20;;;;;;;0.60;0.60;;;32.40;1.00;;;;;;5041166;28;20214;-77
2022/07/23 10:04:46;;;;;;;0.52;0.52;;;32.40;1.00;;;;;;5038441;28;20182;-77
2022/07/23 10:07:16;;;;;;;0.50;0.50;;;32.30;1.00;;;;;;5045812;28;20544;-80
2022/07/23 10:09:42;;;;;;;0.60;0.60;;;32.30;1.00;;;;;;5045098;28;20187;-78
2022/07/23 10:14:58;;;;;;;0.60;0.60;;;32.80;1.00;;;;;;5043651;28;20186;-77
2022/07/23 10:17:24;;;;;;;0.50;0.50;;;33.10;1.00;;;;;;5038001;28;20262;-77
2022/07/23 10:19:49;;;;;;;0.50;0.50;;;33.00;1.00;;;;;;5047961;28;20172;-77
2022/07/23 10:22:22;;;;;;;0.60;0.60;;;32.60;1.00;;;;;;5048364;28;20196;-77
2022/07/23 10:25:07;;;;;;;0.57;0.57;;;32.30;1.00;;;;;;5046600;28;20176;-77
2022/07/23 10:28:07;;;;;;;0.30;0.30;;;31.90;1.00;;;;;;5041468;28;20176;-76
2022/07/23 10:30:59;;;;;;;0.50;0.50;;;31.50;1.00;;;;;;5041186;28;20180;-78
2022/07/23 10:33:41;;;;;;;0.55;0.55;;;31.10;1.00;;;;;;5041847;28;20219;-77
2022/07/23 10:36:28;;;;;;;0.50;0.50;;;30.40;1.00;;;;;;5033057;28;20198;-80
2022/07/23 10:39:05;;;;;;;0.63;0.63;;;30.40;1.00;;;;;;5034655;28;20261;-80
2022/07/23 10:41:36;;;;;;;0.50;0.50;;;30.50;1.00;;;;;;5034187;28;20176;-79
2022/07/23 10:44:15;;;;;;;0.60;0.60;;;30.70;1.00;;;;;;5034087;28;20257;-79
2022/07/23 10:49:36;;;;;;;0.50;0.50;;;30.60;1.00;;;;;;5033750;28;20642;-80
2022/07/23 10:52:13;;;;;;;0.55;0.55;;;30.40;1.00;;;;;;5033415;28;20723;-78
2022/07/23 10:54:39;;;;;;;0.60;0.60;;;31.10;1.00;;;;;;5033387;28;20648;-78
2022/07/23 10:57:10;;;;;;;0.60;0.60;;;31.60;1.00;;;;;;5033231;28;20234;-79
2022/07/23 11:00:17;;;;;;;0.50;0.50;;;31.60;1.00;;;;;;5033370;28;20678;-80
2022/07/23 11:02:45;;;;;;;0.50;0.50;;;31.20;1.00;;;;;;4991995;28;20205;-80
2022/07/23 11:05:14;;;;;;;0.43;0.43;;;30.90;1.00;;;;;;4991736;28;20180;-80
2022/07/23 11:08:05;;;;;;;0.60;0.60;;;30.90;1.00;;;;;;5013585;28;20191;-81
2022/07/23 11:10:36;;;;;;;0.50;0.50;;;31.10;1.00;;;;;;5033822;28;20187;-80
2022/07/23 11:13:26;;;;;;;0.30;0.30;;;31.70;1.00;;;;;;5033379;28;20267;-80
2022/07/23 11:16:01;;;;;;;0.50;0.50;;;32.40;1.00;;;;;;5038065;28;20244;-78
2022/07/23 11:18:47;;;;;;;0.50;0.50;;;32.60;1.00;;;;;;5036972;28;20214;-77
2022/07/23 11:21:31;;;;;;;0.40;0.40;;;32.70;1.00;;;;;;5036905;28;20286;-77
2022/07/23 11:24:04;;;;;;;0.60;0.60;;;32.90;1.00;;;;;;5036385;28;20227;-79
2022/07/23 11:26:49;;;;;;;0.40;0.40;;;33.30;1.00;;;;;;5034561;28;20175;-80
2022/07/23 11:29:27;;;;;;;0.32;0.32;;;33.50;1.00;;;;;;5031958;28;20183;-81
2022/07/23 11:31:54;;;;;;;0.40;0.40;;;33.60;1.00;;;;;;5034891;28;20187;-80
2022/07/23 11:34:42;;;;;;;0.40;0.40;;;33.30;1.00;;;;;;5034827;28;20540;-79
2022/07/23 11:37:26;;;;;;;0.57;0.57;;;33.30;1.00;;;;;;5035885;28;20680;-81
2022/07/23 11:39:57;;;;;;;0.57;0.57;;;32.60;1.00;;;;;;5035261;28;20268;-79
2022/07/23 11:42:23;;;;;;;0.50;0.50;;;33.00;1.00;;;;;;5035496;28;20673;-79
2022/07/23 11:44:50;;;;;;;0.45;0.45;;;33.00;1.00;;;;;;5035207;28;20199;-82
2022/07/23 11:47:24;;;;;;;0.50;0.50;;;32.50;1.00;;;;;;5033848;28;20184;-81
2022/07/23 11:49:54;;;;;;;0.50;0.50;;;32.50;1.00;;;;;;5035369;28;20269;-78
2022/07/23 11:52:19;;;;;;;0.70;0.70;;;32.00;1.00;;;;;;5034925;28;20208;-80
2022/07/23 11:54:48;;;;;;;0.50;0.50;;;31.70;1.00;;;;;;5036938;28;20555;-80
2022/07/23 11:57:14;;;;;;;0.50;0.50;;;31.70;1.00;;;;;;5039658;28;20211;-80
2022/07/23 11:59:40;;;;;;;0.40;0.40;;;31.60;1.00;;;;;;5040837;28;20172;-78
2022/07/23 12:02:06;;;;;;;0.50;0.50;;;31.40;1.00;;;;;;5040794;28;20257;-80
2022/07/23 12:04:43;;;;;;;0.60;0.60;;;31.70;1.00;;;;;;5039759;28;20175;-80
2022/07/23 12:07:27;;;;;;;0.50;0.50;;;32.10;1.00;;;;;;5037980;28;20296;-78
2022/07/23 12:09:53;;;;;;;0.40;0.40;;;32.10;1.00;;;;;;5037220;28;20620;-81
2022/07/23 12:12:19;;;;;;;0.40;0.40;;;32.50;1.00;;;;;;5037407;28;20229;-81
2022/07/23 12:14:53;;;;;;;0.60;0.60;;;32.80;1.00;;;;;;5038146;28;20217;-80
2022/07/23 12:17:19;;;;;;;0.38;0.38;;;33.10;1.00;;;;;;5038335;28;20217;-81
2022/07/23 12:19:45;;;;;;;0.40;0.40;;;32.80;1.00;;;;;;5038151;28;20186;-81
2022/07/23 12:22:11;;;;;;;0.40;0.40;;;32.30;1.00;;;;;;5037511;28;20206;-79
2022/07/23 12:24:54;;;;;;;0.60;0.60;;;32.00;1.00;;;;;;5037619;28;20258;-79
2022/07/23 12:27:21;;;;;;;0.40;0.40;;;32.40;1.00;;;;;;5038212;28;20183;-80
2022/07/23 12:29:47;;;;;;;0.50;0.50;;;32.80;1.00;;;;;;5038247;28;20199;-80
2022/07/23 12:32:23;;;;;;;0.50;0.50;;;33.10;1.00;;;;;;5038974;28;20191;-80
2022/07/23 12:35:05;;;;;;;0.40;0.40;;;33.50;1.00;;;;;;5038308;28;20168;-80
2022/07/23 12:37:42;;;;;;;0.50;0.50;;;33.40;1.00;;;;;;5036655;28;20211;-81
2022/07/23 12:40:28;;;;;;;0.60;0.60;;;33.20;1.00;;;;;;5037470;28;20644;-81
2022/07/23 12:43:02;;;;;;;0.60;0.60;;;33.20;1.00;;;;;;5037643;28;20187;-80
2022/07/23 12:45:42;;;;;;;0.50;0.50;;;32.90;1.00;;;;;;5038896;28;20184;-80
2022/07/23 12:48:07;;;;;;;0.47;0.47;;;32.40;1.00;;;;;;5038892;28;20180;-81
2022/07/23 12:50:40;;;;;;;0.50;0.50;;;32.40;1.00;;;;;;5037819;28;20233;-80
2022/07/23 12:53:15;;;;;;;0.50;0.50;;;32.70;1.00;;;;;;5038025;28;20266;-81
2022/07/23 12:55:42;;;;;;;0.57;0.57;;;33.00;1.00;;;;;;5038989;28;20180;-80
2022/07/23 12:58:19;;;;;;;0.47;0.47;;;33.40;1.00;;;;;;5039781;28;20207;-81
2022/07/23 13:00:59;;;;;;;0.60;0.60;;;33.40;1.00;;;;;;5038876;28;20195;-79
2022/07/23 13:03:37;;;;;;;0.50;0.50;;;33.60;1.00;;;;;;5037225;28;20192;-80
2022/07/23 13:06:05;;;;;;;0.63;0.63;;;33.00;1.00;;;;;;5035927;28;20172;-79